GYD weather

Heydar Aliyev International Airport
Baku, Baki, Azerbaijan

Public forecast

Using degrees Celsius for public forecast. Weather courtesy of forecast.io.

Current aviation weather report (METAR) for Heydar Aliyev International Airport

Retrieved 2019/12/06 15:30 UTC (0 seconds ago):

UBBB 061530Z 14008KT 9999 BKN045 09/05 Q1031 R88/D NOSIG

Aviation forecast (TAF) for Heydar Aliyev International Airport

Retrieved 2019/12/06 12:14 UTC (3 hours ago):

TAF UBBB 061112Z 0612/0712 15010KT 9999 BKN025 TX09/0612Z TN05/0702Z TEMPO 0612/0618 18006KT BKN015 TEMPO 0618/0704 VRB04KT 4000 BR SCT008